Date,TemperatureHighF,TemperatureAvgF,TemperatureLowF,DewpointHighF,DewpointAvgF,DewpointLowF,HumidityHigh,HumidityAvg,HumidityLow,PressureMaxIn,PressureMinIn,WindSpeedMaxMPH,WindSpeedAvgMPH,GustSpeedMaxMPH,PrecipitationSumIn
2013-1-3,60.1,60.0,59.4,56.9,56.8,55.9,89,89,88,30.17,30.14,0,0,0,0.00
2013-1-4,62.1,58.2,55.4,58.4,55.5,52.2,93,91,87,30.26,30.13,0,0,0,0.37
2013-1-5,83.7,63.6,54.4,65.8,56.7,50.4,91,79,52,30.28,30.17,0,0,0,0.00
2013-1-6,91.3,69.2,61.6,74.2,62.5,56.7,90,80,56,30.20,30.03,0,0,0,0.07
2013-1-7,70.4,63.6,57.4,59.9,57.2,51.3,88,80,65,30.21,30.10,0,0,0,0.26
2013-1-8,86.8,70.8,63.0,74.0,65.2,59.4,93,83,64,30.21,30.11,0,0,0,0.00
2013-1-9,80.1,72.9,67.9,73.3,68.0,65.1,93,85,75,30.29,30.18,0,0,0,0.00
2013-1-10,90.0,73.1,67.1,72.2,65.6,62.1,93,79,50,30.30,30.20,0,0,0,0.00
2013-1-11,80.5,71.6,64.3,69.9,64.4,60.0,91,78,65,30.25,30.13,0,0,0,0.01
2013-1-12,83.0,71.8,63.9,71.0,63.5,59.5,91,76,58,30.18,30.07,0,0,0,0.00
2013-1-13,79.2,70.8,63.4,69.0,63.1,59.1,91,77,62,30.15,30.05,0,0,0,0.00
2013-1-14,78.1,70.7,64.3,68.0,63.3,60.0,90,78,61,30.17,30.09,0,0,0,0.00
2013-1-15,82.8,72.2,65.9,70.1,64.3,61.8,90,77,58,30.13,30.03,0,0,0,0.00
2013-1-16,82.6,71.0,63.7,68.4,62.1,59.1,90,74,57,30.08,29.98,0,0,0,0.00
2013-1-17,75.6,65.4,56.5,68.6,58.3,46.1,91,78,66,30.09,29.95,0,0,0,0.00
2013-1-18,64.3,55.1,44.5,56.4,46.3,34.9,86,72,66,30.26,30.09,0,0,0,0.01
2013-1-19,73.4,63.1,56.5,62.1,55.0,49.7,83,75,65,30.26,30.11,0,0,0,0.00
2013-1-20,71.6,65.3,61.0,63.1,57.7,53.4,85,77,67,30.16,30.03,0,0,0,0.01
2013-1-21,73.1,66.6,62.5,62.0,57.1,54.5,78,72,64,30.08,29.97,0,0,0,0.00
2013-1-22,63.9,59.6,53.3,54.9,46.0,42.4,73,61,49,30.25,30.04,0,0,0,0.50
2013-1-23,69.7,56.8,47.5,45.4,39.9,34.7,72,55,37,30.34,30.24,0,0,0,0.00
2013-1-24,72.0,59.2,49.7,55.3,47.4,42.4,80,66,50,30.30,30.19,0,0,0,0.02
2013-1-25,75.1,62.8,54.5,58.8,51.5,47.0,87,68,52,30.28,30.14,0,0,0,0.00
2013-1-26,74.5,61.9,52.4,60.5,52.1,46.0,87,71,57,30.25,30.13,0,0,0,0.00
2013-1-27,94.9,66.4,54.4,68.0,56.3,50.0,90,72,39,30.29,30.20,0,0,0,0.00
2013-1-28,76.7,69.9,63.7,64.9,61.8,58.3,86,76,65,30.32,30.21,0,0,0,0.00
2013-1-29,93.1,72.4,63.5,75.2,64.1,59.7,92,76,51,30.23,30.08,0,0,0,0.00
2013-1-30,98.6,74.8,66.4,72.7,63.9,60.8,87,71,41,30.10,29.86,0,0,0,0.00
2013-1-31,84.2,61.9,52.2,63.6,45.9,33.9,81,58,30,30.21,29.87,0,0,0,0.16
2013-2-1,90.5,57.0,44.3,46.5,35.3,30.2,61,46,21,30.33,30.20,0,0,0,0.00
2013-2-2,92.7,59.3,45.7,51.2,40.0,33.7,68,51,23,30.28,30.11,0,0,0,0.01
2013-2-3,72.4,59.2,48.6,54.4,43.5,37.5,69,57,43,30.16,30.03,0,0,0,0.00
2013-2-4,73.1,58.7,48.8,47.5,41.6,39.1,78,55,35,30.12,30.01,0,0,0,0.00
2013-2-5,75.4,60.5,48.1,56.9,47.5,39.4,76,63,50,30.08,29.97,0,0,0,0.17
2013-2-6,74.5,67.3,59.9,61.4,57.0,51.7,78,70,59,30.10,30.00,0,0,0,0.00
2013-2-7,79.6,72.3,66.6,65.3,61.2,59.0,80,69,56,30.06,29.84,0,0,0,0.00
2013-2-8,82.1,71.2,64.4,65.5,59.4,54.7,79,67,51,30.06,29.85,0,0,0,0.00
2013-2-9,76.5,64.9,56.7,60.7,53.6,50.0,81,68,53,30.18,30.05,0,0,0,0.10
2013-2-10,79.2,68.0,60.5,60.5,55.5,51.0,75,65,51,30.26,30.14,0,0,0,0.00
2013-2-11,83.0,71.3,61.9,66.6,59.4,55.3,84,67,53,30.20,30.05,0,0,0,0.08
2013-2-12,85.3,73.5,64.4,70.5,62.9,58.5,87,70,54,30.08,29.90,0,0,0,0.00
2013-2-13,86.6,74.8,67.0,72.5,65.6,58.9,84,74,57,29.95,29.79,0,0,0,0.56
2013-2-14,67.0,64.2,59.6,60.9,58.4,54.6,86,81,75,30.03,29.89,0,0,0,0.29
2013-2-15,67.0,60.4,55.4,58.1,53.9,50.9,86,80,70,30.06,29.93,0,0,0,0.02
2013-2-16,73.6,59.9,52.0,54.4,46.7,31.8,84,64,44,30.11,29.88,0,0,0,0.00
2013-2-17,60.8,48.9,40.7,32.1,25.9,21.8,56,41,32,30.32,30.10,0,0,0,0.00
2013-2-18,68.9,53.0,38.7,44.8,36.0,25.5,64,53,40,30.35,30.19,0,0,0,0.00
2013-2-19,83.3,63.2,51.5,59.2,52.1,43.4,84,68,39,30.20,30.03,0,0,0,0.79
2013-2-20,81.0,66.7,61.7,61.7,56.1,52.0,86,70,51,30.12,29.99,0,0,0,0.00
2013-2-21,86.2,70.2,60.8,67.1,58.4,51.8,80,67,51,30.09,29.97,0,0,0,0.00
2013-2-22,82.6,73.7,66.1,68.8,65.3,61.6,89,76,53,30.07,29.96,0,0,0,0.37
2013-2-23,83.5,75.7,70.0,70.0,66.7,62.8,89,75,54,30.00,29.84,0,0,0,0.02
2013-2-24,74.2,71.2,67.5,70.6,66.9,63.5,90,86,83,29.95,29.84,0,0,0,0.44
2013-2-25,81.2,72.3,65.9,70.7,65.8,62.6,92,81,57,29.91,29.74,0,0,0,0.00
2013-2-26,74.7,71.5,67.1,70.4,66.7,61.3,90,85,75,29.85,29.71,0,0,0,0.34
2013-2-27,74.0,67.9,61.7,61.8,57.7,50.6,86,71,57,29.96,29.84,0,0,0,0.00
2013-2-28,72.7,64.1,55.3,57.1,51.0,47.4,81,64,44,29.98,29.85,0,0,0,0.01
2013-3-1,64.6,59.1,54.4,48.7,42.4,33.6,69,55,34,29.98,29.88,0,0,0,0.00
2013-3-2,61.4,55.5,49.7,41.1,36.1,31.6,57,48,36,30.01,29.92,0,0,0,0.00
2013-3-3,55.8,49.5,44.5,36.9,32.8,29.5,62,53,46,30.13,29.96,0,0,0,0.00
2013-3-4,63.7,52.2,40.7,37.3,33.5,29.4,74,51,29,30.21,30.08,0,0,0,0.00
2013-3-5,73.4,60.6,46.4,55.4,44.5,37.0,79,58,32,30.16,29.98,0,0,0,0.00
2013-3-6,67.9,61.3,52.9,58.6,42.2,30.9,84,53,28,30.11,29.90,0,0,0,0.00
2013-3-7,65.7,55.6,45.4,44.3,38.0,31.0,67,52,42,30.20,30.09,0,0,0,0.00
2013-3-8,71.6,59.2,47.3,48.1,43.5,39.9,80,59,34,30.20,30.09,0,0,0,0.00
2013-3-9,73.3,62.1,52.0,51.4,47.8,44.0,75,61,42,30.21,30.12,0,0,0,0.00
2013-3-10,76.1,66.1,56.3,58.1,53.0,50.0,81,64,45,30.16,30.06,0,0,0,0.00
2013-3-11,76.5,68.1,58.9,59.3,56.1,51.7,81,66,53,30.10,29.89,0,0,0,0.00
2013-3-12,70.6,67.1,61.6,65.5,61.0,55.4,91,81,70,30.01,29.83,0,0,0,0.15
2013-3-13,65.2,62.0,59.8,55.4,43.4,42.0,80,51,43,30.16,30.01,0,0,0,0.00
2013-3-14,67.3,58.6,50.4,44.6,37.2,29.8,63,46,26,30.25,30.13,0,0,0,0.00
2013-3-15,70.7,58.4,47.0,45.0,40.5,35.7,79,54,31,30.27,30.12,0,0,0,0.02
2013-3-16,76.5,63.8,51.3,49.8,45.6,41.2,79,55,32,30.17,30.01,0,0,0,0.00
2013-3-17,75.6,65.2,53.3,57.7,51.1,41.9,80,61,48,30.13,29.98,0,0,0,0.00
2013-3-18,77.9,71.7,65.9,64.4,60.9,56.7,77,69,59,30.05,29.89,0,0,0,0.00
2013-3-19,83.3,73.8,65.9,65.7,61.1,57.5,86,67,43,30.01,29.87,0,0,0,0.00
2013-3-20,75.1,69.7,63.7,66.6,61.3,57.1,84,75,64,29.96,29.77,0,0,0,0.39
2013-3-21,70.0,62.9,54.7,57.1,45.9,36.5,81,56,34,29.95,29.85,0,0,0,0.00
2013-3-22,77.4,63.0,51.7,60.2,49.7,41.6,84,64,41,30.00,29.88,0,0,0,0.24
2013-3-23,82.6,72.7,64.4,72.5,65.7,59.9,91,79,65,29.97,29.74,0,0,0,0.05
2013-3-24,80.5,72.3,68.9,71.4,66.6,63.2,88,82,71,29.83,29.62,0,0,0,1.05
2013-3-25,72.4,67.6,59.9,65.6,51.8,40.4,86,60,33,30.02,29.69,0,0,0,0.07
2013-3-26,63.4,56.8,50.0,44.0,33.4,27.5,56,42,27,30.22,30.00,0,0,0,0.00
2013-3-27,62.5,54.3,44.6,38.7,33.7,29.2,58,47,32,30.29,30.18,0,0,0,0.00
2013-3-28,69.5,58.2,46.1,42.9,39.1,36.6,73,52,30,30.28,30.16,0,0,0,0.01
2013-3-29,72.4,61.3,49.7,47.9,42.6,34.6,77,53,28,30.31,30.17,0,0,0,0.08
2013-3-30,76.5,65.1,53.1,55.2,49.3,42.2,81,58,39,30.25,30.09,0,0,0,0.04
2013-3-31,80.8,71.1,62.8,58.3,53.7,49.8,70,56,38,30.15,29.97,0,0,0,0.00
2013-4-1,82.4,73.3,65.0,65.1,60.3,55.0,81,65,48,30.01,29.91,0,0,0,0.00
2013-4-2,82.6,72.7,64.4,62.6,57.9,50.6,85,62,39,30.08,29.98,0,0,0,0.00
2013-4-3,81.4,70.2,64.6,66.2,61.0,55.0,85,73,55,30.07,29.94,0,0,0,0.49
2013-4-4,70.6,69.6,68.6,66.8,65.2,63.2,88,86,82,30.00,29.87,0,0,0,0.21
2013-4-5,74.7,67.5,61.6,64.0,61.1,55.0,86,80,63,29.98,29.78,0,0,0,0.05
2013-4-6,76.1,66.4,57.2,59.7,55.5,51.5,82,69,51,30.13,29.97,0,0,0,0.00
2013-4-7,79.4,69.9,60.3,61.7,58.1,55.0,85,68,48,30.15,30.04,0,0,0,0.00
2013-4-8,82.4,69.1,63.7,63.4,60.0,58.2,85,74,48,30.13,30.05,0,0,0,0.00
2013-4-9,83.3,72.0,66.2,67.0,61.0,55.4,86,70,47,30.16,30.05,0,0,0,0.00
2013-4-10,81.9,71.0,64.4,68.8,62.9,58.3,85,76,58,30.12,29.98,0,0,0,0.02
2013-4-11,87.8,79.7,72.7,71.7,69.0,67.2,87,71,52,29.99,29.80,0,0,0,0.00
2013-4-12,83.3,79.4,75.8,72.3,70.1,68.9,83,73,66,29.89,29.79,0,0,0,0.00
2013-4-13,85.7,77.9,72.0,71.2,66.5,56.9,85,69,52,29.98,29.85,0,0,0,0.00
2013-4-14,85.7,76.4,71.5,73.3,67.0,60.6,86,73,63,29.98,29.80,0,0,0,0.42
2013-4-15,83.5,72.6,68.4,67.1,62.9,60.9,81,72,53,30.06,29.88,0,0,0,0.00
2013-4-16,86.8,78.1,71.3,72.0,66.9,62.5,84,69,58,30.14,30.03,0,0,0,0.00
2013-4-17,76.0,71.6,68.4,68.0,64.7,63.4,86,79,68,30.14,30.05,0,0,0,0.29
2013-4-18,79.6,72.8,69.5,68.9,66.0,64.4,86,80,68,30.05,29.97,0,0,0,0.00
2013-4-19,79.7,77.7,76.0,70.9,69.7,68.3,81,77,72,29.99,29.95,0,0,0,0.02
2013-4-20,77.4,70.7,63.2,69.6,62.5,55.3,83,76,70,30.14,29.94,0,0,0,0.00
2013-4-21,77.8,69.6,63.4,70.5,64.2,55.4,90,83,75,30.13,30.01,0,0,0,0.53
2013-4-22,70.7,69.5,67.3,67.5,66.1,62.3,90,89,84,30.07,29.98,0,0,0,0.07
2013-4-23,72.4,67.3,64.6,65.5,61.3,58.7,88,82,66,30.11,29.99,0,0,0,0.00
2013-4-24,83.0,69.4,61.2,65.3,59.2,55.4,85,71,46,30.13,30.04,0,0,0,0.00
2013-4-25,83.5,72.9,66.4,66.6,61.8,57.6,84,69,45,30.19,30.08,0,0,0,0.00
2013-4-26,85.7,75.8,68.8,66.9,63.7,61.6,82,67,47,30.22,30.13,0,0,0,0.00
2013-4-27,82.4,75.8,69.1,67.9,64.1,61.1,84,68,51,30.21,30.08,0,0,0,0.00
2013-4-28,81.7,74.9,68.4,67.5,64.3,62.3,83,70,57,30.12,29.97,0,0,0,0.00
2013-4-29,82.6,73.2,69.5,69.3,65.0,62.4,82,76,59,30.02,29.87,0,0,0,0.43
2013-4-30,85.0,76.0,70.9,70.3,67.4,64.5,88,76,51,30.00,29.88,0,0,0,0.63
2013-5-1,76.7,72.7,70.4,70.7,68.2,66.2,90,86,75,30.00,29.92,0,0,0,0.15
2013-5-2,73.3,70.9,68.0,70.8,67.8,64.8,92,90,88,29.95,29.79,0,0,0,2.57
2013-5-3,80.6,72.9,68.8,72.0,67.9,66.0,92,85,67,29.82,29.67,0,0,0,2.36
2013-5-4,81.2,74.6,70.0,72.4,68.4,66.2,90,81,67,29.77,29.64,0,0,0,0.01
2013-5-5,77.8,72.3,64.4,67.0,56.6,50.6,83,60,42,29.92,29.73,0,0,0,0.02
2013-5-6,78.8,71.9,66.6,60.1,56.5,52.1,78,59,44,29.98,29.86,0,0,0,0.00
2013-5-7,80.3,71.1,61.0,59.8,56.5,52.8,77,61,47,30.03,29.94,0,0,0,0.00
2013-5-8,77.4,69.4,65.2,60.4,58.5,57.6,78,69,52,30.11,30.00,0,0,0,0.00
2013-5-9,84.4,75.3,65.2,66.6,61.0,58.1,84,63,41,30.13,30.05,0,0,0,0.00
2013-5-10,88.9,79.1,69.1,71.4,67.0,62.8,86,68,50,30.12,29.97,0,0,0,0.51
2013-5-11,89.1,79.6,72.5,73.9,69.1,65.0,86,71,55,30.03,29.94,0,0,0,0.01
2013-5-12,89.1,80.3,72.0,72.8,67.3,64.5,84,66,51,30.02,29.92,0,0,0,0.00
2013-5-13,82.1,76.6,70.4,66.9,60.8,50.6,78,60,40,30.12,29.97,0,0,0,0.00
2013-5-14,82.4,73.1,62.6,56.5,53.2,48.4,70,52,32,30.20,30.09,0,0,0,0.01
2013-5-15,84.8,75.0,64.6,62.3,58.0,54.7,79,57,38,30.20,30.07,0,0,0,0.34
2013-5-16,84.8,77.0,69.1,65.4,61.7,59.6,75,60,45,30.12,29.99,0,0,0,0.00
2013-5-17,87.7,78.7,69.1,67.5,64.0,61.0,78,62,45,30.09,30.01,0,0,0,0.00
2013-5-18,89.5,80.0,72.0,72.6,67.9,64.4,83,68,46,30.10,29.98,0,0,0,0.00
2013-5-19,89.6,79.8,75.6,73.4,70.2,67.0,81,73,53,30.07,29.97,0,0,0,0.08
2013-5-20,87.5,78.1,71.6,74.7,70.3,65.9,89,78,54,30.06,29.95,0,0,0,1.00
2013-5-21,83.0,74.9,72.2,75.0,70.4,68.4,91,86,71,30.02,29.92,0,0,0,0.52
2013-5-22,85.7,77.2,71.5,74.6,70.6,67.7,92,81,66,29.95,29.89,0,0,0,0.00
2013-5-23,88.6,79.6,72.7,76.0,71.3,68.5,90,77,59,29.98,29.88,0,0,0,0.02
2013-5-24,90.7,81.9,73.4,76.5,69.1,63.6,89,68,45,30.08,29.94,0,0,0,0.00
2013-5-25,86.0,78.9,72.4,68.1,63.7,57.8,82,61,47,30.18,30.05,0,0,0,0.00
2013-5-26,85.1,75.9,66.2,62.8,59.4,57.4,77,58,40,30.21,30.12,0,0,0,0.00
2013-5-27,86.0,77.1,68.4,65.4,62.3,59.8,79,62,43,30.17,30.07,0,0,0,0.00
2013-5-28,87.1,78.9,70.7,71.3,67.7,63.5,82,69,57,30.13,30.04,0,0,0,0.00
2013-5-29,83.7,78.1,74.3,74.6,70.9,68.4,85,79,67,30.12,30.04,0,0,0,0.22
2013-5-30,85.3,79.0,72.9,74.2,70.6,67.8,89,76,61,30.10,30.01,0,0,0,0.05
2013-5-31,85.0,79.1,74.2,73.5,69.9,67.5,84,74,61,30.09,30.00,0,0,0,0.05
2013-6-1,86.4,80.0,74.7,74.6,71.9,69.6,85,77,66,30.06,29.94,0,0,0,0.00
2013-6-2,90.0,81.4,76.0,76.3,73.5,70.7,89,78,59,30.00,29.84,0,0,0,0.08
2013-6-3,87.8,80.4,76.3,76.7,73.9,72.0,89,81,64,29.98,29.86,0,0,0,0.15
2013-6-4,87.1,79.0,74.2,76.1,72.6,70.1,87,81,67,30.02,29.91,0,0,0,1.27
2013-6-5,81.0,76.1,74.0,75.1,72.1,69.9,91,87,77,30.00,29.89,0,0,0,0.70
2013-6-6,78.1,75.4,73.1,75.5,72.6,70.3,94,91,83,29.90,29.63,0,0,0,1.40
2013-6-7,87.1,80.2,74.5,76.3,73.1,71.1,90,80,66,29.92,29.73,0,0,0,0.01
2013-6-8,88.7,79.1,74.7,77.1,72.7,69.6,89,81,65,30.08,29.92,0,0,0,2.53
2013-6-9,88.2,80.1,73.1,78.1,73.3,69.7,92,81,66,30.09,30.00,0,0,0,0.01
2013-6-10,90.9,82.2,76.9,76.6,73.2,69.4,87,75,57,30.08,29.98,0,0,0,0.00
2013-6-11,89.3,80.6,75.6,78.0,74.1,71.0,88,81,67,30.06,29.98,0,0,0,0.26
2013-6-12,90.5,82.4,74.2,78.7,73.6,70.4,92,76,58,30.06,29.96,0,0,0,0.00
2013-6-13,92.2,84.4,77.0,78.2,73.6,71.1,84,71,55,30.01,29.86,0,0,0,0.00
2013-6-14,91.1,84.5,78.1,76.2,72.9,69.6,83,69,54,29.91,29.80,0,0,0,0.00
2013-6-15,88.4,81.5,77.4,77.2,74.0,71.8,85,78,67,30.05,29.89,0,0,0,0.73
2013-6-16,88.9,82.2,78.1,77.9,74.5,71.8,86,78,67,30.06,29.99,0,0,0,0.15
2013-6-17,89.5,82.3,77.6,80.6,75.8,72.9,90,81,69,30.06,29.93,0,0,0,0.55
2013-6-18,91.4,83.0,76.0,78.9,75.0,71.6,89,77,60,30.04,29.92,0,0,0,0.02
2013-6-19,92.0,83.9,78.1,78.3,75.0,72.2,86,75,60,30.02,29.92,0,0,0,0.07
2013-6-20,91.4,82.3,76.0,78.4,73.5,70.2,84,75,59,30.08,29.97,0,0,0,0.28
2013-6-21,90.0,80.3,74.7,77.3,73.1,70.5,89,79,61,30.09,30.01,0,0,0,1.80
2013-6-22,88.6,80.4,74.2,77.5,72.9,70.4,91,79,58,30.10,30.02,0,0,0,0.00
2013-6-23,89.8,81.2,75.4,77.0,73.6,70.8,88,78,62,30.13,30.04,0,0,0,0.05
2013-6-24,90.4,83.0,76.7,76.9,73.5,71.7,87,74,59,30.17,30.05,0,0,0,0.01
2013-6-25,91.4,83.5,77.2,75.6,72.8,69.9,85,71,54,30.14,30.01,0,0,0,0.00
2013-6-26,92.2,83.2,78.8,77.8,73.3,70.4,83,73,55,30.05,29.98,0,0,0,0.00
2013-6-27,90.9,82.7,75.8,76.7,73.2,69.9,85,73,59,30.02,29.90,0,0,0,0.00
2013-6-28,92.2,82.2,77.6,77.4,73.8,70.4,85,76,56,29.95,29.82,0,0,0,0.43
2013-6-29,88.6,82.1,77.6,77.8,74.1,71.6,87,77,63,29.85,29.76,0,0,0,0.00
2013-6-30,89.6,79.9,76.9,77.8,73.6,71.8,86,81,66,29.86,29.78,0,0,0,0.40
2013-7-1,83.5,77.6,75.1,75.3,72.4,71.2,89,84,74,30.00,29.83,0,0,0,0.70
2013-7-2,82.4,77.5,74.7,77.9,73.7,71.3,92,88,81,30.07,29.95,0,0,0,0.49
2013-7-3,88.6,78.8,74.9,78.8,74.2,71.6,92,86,68,30.11,30.03,0,0,0,0.28
2013-7-4,88.6,79.3,74.7,77.9,73.7,70.3,92,83,64,30.13,30.05,0,0,0,0.38
2013-7-5,87.5,80.8,74.9,77.9,73.8,71.5,92,80,63,30.13,30.03,0,0,0,0.00
2013-7-6,89.1,82.7,76.3,76.9,73.4,70.7,87,74,59,30.10,30.01,0,0,0,0.00
2013-7-7,89.5,83.2,77.0,76.2,73.1,71.2,86,72,56,30.12,30.01,0,0,0,0.00
2013-7-8,90.4,83.4,77.4,76.5,73.5,71.4,87,73,59,30.14,30.05,0,0,0,0.00
2013-7-9,90.4,83.2,76.5,75.6,71.6,67.8,86,69,52,30.14,30.03,0,0,0,0.00
2013-7-10,89.8,82.6,76.7,75.7,72.2,70.2,85,72,55,30.07,29.94,0,0,0,0.00
2013-7-11,92.2,83.9,78.3,75.0,72.6,70.2,81,70,51,30.01,29.88,0,0,0,0.00
2013-7-12,89.6,81.8,77.8,77.0,74.1,71.8,83,77,66,29.93,29.86,0,0,0,0.16
2013-7-13,90.0,80.3,76.3,76.2,73.0,71.1,86,79,58,29.98,29.88,0,0,0,0.39
2013-7-14,88.9,79.6,75.2,77.4,73.1,70.7,88,81,65,30.07,29.94,0,0,0,0.00
2013-7-15,88.2,79.5,74.3,76.5,73.0,70.1,88,81,63,30.10,29.99,0,0,0,0.22
2013-7-16,87.7,78.5,75.6,76.5,73.0,71.6,89,83,66,30.14,30.07,0,0,0,0.44
2013-7-17,88.4,79.4,75.4,76.7,73.5,70.4,92,83,62,30.14,30.05,0,0,0,0.19
2013-7-18,85.3,79.2,75.1,76.0,72.7,70.9,91,81,67,30.10,30.02,0,0,0,0.02
2013-7-19,88.0,79.5,75.4,76.6,73.0,71.4,88,81,63,30.11,30.00,0,0,0,0.43
2013-7-20,88.0,79.3,75.2,78.4,74.1,71.6,91,84,69,30.08,29.97,0,0,0,0.06
2013-7-21,88.4,80.2,75.2,79.4,74.3,71.6,90,83,68,30.09,29.98,0,0,0,0.00
2013-7-22,92.0,80.9,77.0,78.8,74.4,72.2,88,81,60,30.09,30.03,0,0,0,0.93
2013-7-23,81.9,78.5,76.3,77.2,74.1,72.5,92,86,80,30.06,29.92,0,0,0,0.10
2013-7-24,85.1,80.8,77.0,78.8,75.4,73.3,90,84,75,29.97,29.84,0,0,0,0.09
2013-7-25,81.0,78.8,76.3,75.3,74.3,72.2,89,86,82,29.89,29.83,0,0,0,0.16
2013-7-28,91.3,83.5,78.7,75.5,72.4,70.2,80,70,57,30.04,29.94,0,0,0,0.00
2013-7-29,90.7,82.1,77.0,78.8,74.8,71.8,88,79,62,30.12,29.99,0,0,0,0.39
2013-7-30,91.3,83.8,77.0,78.8,75.0,73.3,89,76,57,30.14,30.04,0,0,0,0.00
2013-7-31,91.8,83.7,78.5,79.1,75.1,72.4,87,76,61,30.11,29.97,0,0,0,0.35
2013-8-1,89.3,81.0,77.4,77.0,74.2,70.4,89,80,62,30.04,29.92,0,0,0,0.15
2013-8-2,90.2,82.8,76.9,77.8,74.1,72.7,89,76,57,30.01,29.91,0,0,0,0.00
2013-8-3,90.4,82.6,78.5,78.3,74.6,72.5,85,77,63,30.06,29.96,0,0,0,0.34
2013-8-4,90.4,81.3,78.1,80.1,76.3,73.6,89,85,71,30.05,29.95,0,0,0,0.88
2013-8-5,90.4,82.8,77.2,81.5,76.7,71.6,91,82,67,29.98,29.87,0,0,0,0.58
2013-8-6,90.5,82.5,76.5,80.4,76.0,73.1,91,81,67,29.95,29.86,0,0,0,0.01
2013-8-7,90.7,83.6,78.8,79.0,76.0,73.8,89,78,62,29.95,29.88,0,0,0,0.31
2013-8-8,91.1,83.7,78.5,78.3,75.6,73.8,89,77,60,30.02,29.91,0,0,0,0.01
2013-8-9,91.3,83.6,78.1,77.8,74.5,71.1,87,75,59,30.04,29.95,0,0,0,0.00
2013-8-10,92.2,84.7,77.2,78.3,74.0,70.7,85,71,57,30.10,30.00,0,0,0,0.00
2013-8-11,92.9,85.6,78.8,78.6,74.6,70.7,86,71,53,30.13,30.02,0,0,0,0.00
2013-8-12,91.8,85.2,78.1,78.0,73.9,70.7,85,70,56,30.10,29.96,0,0,0,0.00
2013-8-13,93.8,86.4,79.2,77.6,74.0,69.6,82,68,47,30.02,29.88,0,0,0,0.00
2013-8-14,93.8,82.4,76.5,79.2,75.0,71.6,88,79,58,29.99,29.86,0,0,0,1.12
2013-8-15,90.9,82.6,76.9,79.8,75.2,72.4,90,79,59,30.00,29.88,0,0,0,0.02
2013-8-16,89.8,82.8,79.4,78.1,75.3,72.8,85,78,64,30.03,29.93,0,0,0,0.18
2013-8-17,90.0,81.9,78.1,80.3,76.1,73.3,91,83,67,30.06,29.95,0,0,0,0.21
2013-8-18,90.4,82.5,77.9,78.6,75.7,73.1,91,80,64,30.07,29.98,0,0,0,0.12
2013-8-19,91.6,82.5,77.0,79.7,75.4,72.7,91,80,65,30.06,29.93,0,0,0,0.01
2013-8-20,91.4,84.3,78.1,78.0,74.5,71.3,88,73,56,30.07,29.95,0,0,0,0.00
2013-8-21,90.7,82.0,78.1,78.3,75.0,73.3,88,80,61,30.08,30.00,0,0,0,0.46
2013-8-22,90.4,81.0,78.5,80.0,75.7,71.8,91,84,69,30.06,29.96,0,0,0,0.01
2013-8-23,90.4,81.0,77.6,79.3,75.0,72.5,89,82,64,30.00,29.92,0,0,0,0.15
2013-8-24,90.0,79.9,76.3,79.3,75.0,72.5,91,85,68,30.08,29.97,0,0,0,1.19
2013-8-25,85.0,78.8,75.6,77.4,74.1,72.2,91,86,73,30.13,30.05,0,0,0,0.53
2013-8-26,87.8,80.3,75.4,77.9,74.3,71.8,89,82,68,30.11,29.97,0,0,0,0.05
2013-8-27,87.8,81.1,75.6,74.4,71.4,67.2,88,73,57,30.04,29.96,0,0,0,0.00
2013-8-28,89.1,81.3,74.2,74.0,69.7,67.5,86,69,51,30.03,29.93,0,0,0,0.00
2013-8-29,90.7,82.9,76.0,75.0,72.0,69.1,85,71,54,30.00,29.88,0,0,0,0.00
2013-8-30,92.2,83.2,77.2,77.7,73.8,71.3,83,74,60,29.95,29.84,0,0,0,0.00
2013-8-31,91.1,82.6,77.2,78.2,74.2,71.6,85,76,60,29.94,29.84,0,0,0,0.08
2013-9-1,90.9,82.1,76.1,77.7,73.0,70.7,84,75,58,29.97,29.85,0,0,0,0.18
2013-9-2,90.7,82.0,76.0,77.6,73.7,71.3,87,77,62,29.99,29.89,0,0,0,0.00
2013-9-4,79.9,79.6,79.0,70.8,70.5,70.0,75,74,73,30.05,30.03,0,0,0,0.00
2013-9-5,90.7,81.8,76.0,77.8,73.5,69.8,85,77,59,30.07,29.96,0,0,0,0.14
2013-9-6,91.8,80.4,76.7,79.3,74.5,70.7,89,83,59,30.02,29.93,0,0,0,0.27
2013-9-7,88.2,79.1,74.2,77.5,72.8,70.1,89,82,62,29.98,29.89,0,0,0,0.20
2013-9-8,89.1,80.2,74.2,76.6,72.3,70.3,89,78,60,29.95,29.84,0,0,0,0.00
2013-9-9,89.1,83.9,74.2,74.6,70.8,66.8,86,66,48,30.01,29.90,0,0,0,0.00
2013-9-10,89.3,81.9,75.6,72.8,70.8,65.3,86,70,49,30.07,29.97,0,0,0,0.00
2013-9-11,90.0,82.4,76.5,74.4,71.2,66.1,86,70,48,30.05,29.96,0,0,0,0.00
2013-9-12,89.1,80.8,76.0,76.7,72.8,70.7,87,77,64,30.00,29.85,0,0,0,0.00
2013-9-13,89.5,81.6,75.2,77.1,72.9,70.1,88,76,55,29.87,29.75,0,0,0,0.04
2013-9-14,91.4,83.2,77.2,77.0,74.2,72.5,87,75,58,29.94,29.79,0,0,0,0.05
2013-9-15,90.5,82.4,78.1,76.8,74.0,72.3,87,76,57,30.04,29.94,0,0,0,0.00
2013-9-16,89.8,80.9,75.4,76.3,72.8,70.7,87,77,56,30.05,29.94,0,0,0,0.17
2013-9-17,89.5,80.9,75.1,75.1,72.1,70.7,89,75,57,30.03,29.92,0,0,0,0.00
2013-9-18,86.4,79.6,76.3,76.9,72.7,70.2,86,79,66,30.01,29.94,0,0,0,0.05
2013-9-19,87.5,79.7,74.7,75.6,71.5,69.0,89,77,57,30.02,29.94,0,0,0,0.03
2013-9-20,87.5,79.4,72.9,71.6,68.9,67.4,85,71,55,30.00,29.87,0,0,0,0.00
2013-9-21,88.6,80.6,73.3,74.5,70.4,68.1,87,72,54,29.91,29.72,0,0,0,0.00
2013-9-22,90.0,80.2,76.7,76.0,72.5,69.4,87,78,60,29.82,29.70,0,0,0,1.08
2013-9-23,83.5,77.6,75.2,77.5,73.8,71.8,91,88,80,29.93,29.80,0,0,0,1.80
2013-9-24,82.4,77.5,75.6,76.8,73.9,72.4,91,89,81,29.93,29.80,0,0,0,0.19
2013-9-25,80.6,77.3,74.7,74.0,72.5,70.5,90,85,77,29.82,29.74,0,0,0,0.01
2013-9-26,86.8,80.5,76.1,78.5,73.4,69.0,92,80,59,29.84,29.73,0,0,0,0.01
2013-9-27,80.6,76.3,73.1,72.8,70.3,67.8,87,82,73,29.93,29.82,0,0,0,0.31
2013-9-28,83.7,77.5,72.7,74.3,70.3,67.6,90,79,66,29.98,29.88,0,0,0,0.01
2013-9-29,86.0,78.0,72.5,72.6,69.1,66.8,87,75,56,29.96,29.86,0,0,0,0.00
2013-9-30,86.8,78.0,72.0,74.4,69.7,66.9,87,76,60,29.98,29.88,0,0,0,0.00
2013-10-1,85.5,78.6,74.2,74.2,70.6,68.4,86,77,67,30.04,29.95,0,0,0,0.03
2013-10-2,85.7,78.2,71.8,72.5,68.8,66.7,84,74,60,30.03,29.95,0,0,0,0.00
2013-10-3,86.8,78.6,71.8,73.5,69.5,66.5,85,74,60,30.04,29.95,0,0,0,0.00
2013-10-4,88.6,79.5,73.8,73.8,70.3,68.1,88,74,56,30.05,29.95,0,0,0,0.00
2013-10-5,86.0,79.2,73.3,74.2,70.5,68.5,87,75,59,30.03,29.92,0,0,0,0.00
2013-10-6,87.7,78.5,73.6,75.1,71.7,69.4,89,80,60,29.95,29.81,0,0,0,0.32
2013-10-7,81.0,76.7,75.1,76.1,72.6,70.8,91,87,79,29.85,29.71,0,0,0,1.22
2013-10-8,84.8,78.5,75.2,77.8,73.3,70.1,92,84,73,29.92,29.73,0,0,0,0.01
2013-10-9,79.4,75.0,70.6,70.5,67.7,64.1,84,78,72,30.00,29.90,0,0,0,0.00
2013-10-10,83.7,74.8,68.0,71.6,65.9,62.9,84,75,57,30.03,29.92,0,0,0,0.00
2013-10-11,83.9,75.3,69.1,70.5,66.6,64.3,87,75,59,30.01,29.90,0,0,0,0.04
2013-10-12,84.2,75.9,69.5,70.7,65.5,62.8,87,71,54,30.01,29.93,0,0,0,0.00
2013-10-13,83.9,75.9,68.9,66.6,64.1,61.0,84,68,49,30.05,29.95,0,0,0,0.00
2013-10-14,83.9,75.7,70.2,69.5,66.1,63.2,84,73,56,30.02,29.90,0,0,0,0.00
2013-10-15,78.3,74.0,70.9,71.3,68.5,65.5,87,83,78,29.97,29.86,0,0,0,0.00
2013-10-16,83.7,77.4,73.1,72.7,69.8,67.1,89,78,61,29.95,29.86,0,0,0,0.00
2013-10-17,84.2,78.0,72.9,73.9,70.6,68.6,90,79,64,29.95,29.85,0,0,0,0.00
2013-10-18,86.8,79.3,72.9,74.6,70.8,68.7,90,76,58,29.95,29.85,0,0,0,0.00
2013-10-19,86.8,79.7,73.8,74.3,71.6,69.4,89,77,62,29.92,29.82,0,0,0,0.00
2013-10-20,82.8,78.0,76.1,74.8,72.0,69.1,88,82,74,29.94,29.82,0,0,0,0.00
2013-10-21,87.5,79.1,73.1,77.9,72.6,68.7,88,81,66,29.97,29.86,0,0,0,0.02
2013-10-22,87.1,79.9,74.7,76.3,72.6,68.9,91,79,62,29.91,29.77,0,0,0,0.00
2013-10-23,81.5,76.4,70.2,70.7,65.2,53.9,86,70,49,29.98,29.76,0,0,0,0.00
2013-10-24,71.8,67.6,64.3,58.2,54.0,48.0,72,62,55,30.13,29.98,0,0,0,0.00
2013-10-25,77.8,68.5,61.2,58.6,55.8,53.8,78,65,48,30.21,30.11,0,0,0,0.06
2013-10-26,76.0,66.6,60.1,62.5,56.2,52.2,76,70,52,30.18,30.06,0,0,0,0.00
2013-10-27,64.3,63.8,63.4,54.2,53.9,53.6,71,70,69,30.09,30.08,0,0,0,0.00
2013-10-28,79.6,68.5,59.4,65.3,58.9,53.1,83,72,54,30.16,30.06,0,0,0,0.00
2013-10-29,81.0,71.9,64.8,67.9,63.2,60.2,88,75,56,30.19,30.10,0,0,0,0.00
2013-10-30,81.2,73.0,66.6,67.6,64.5,61.9,88,75,58,30.19,30.07,0,0,0,0.00
2013-10-31,70.9,70.7,70.7,64.6,64.4,64.3,81,80,80,30.10,30.10,0,0,0,0.00
2013-11-11,72.0,70.3,68.2,65.2,64.4,63.2,84,82,79,30.07,30.05,0,0,0,0.00
2013-11-12,76.7,70.3,64.4,70.6,64.2,59.2,91,81,72,30.08,29.96,0,0,0,0.00
2013-11-13,68.6,61.8,55.6,59.2,51.3,47.6,75,69,61,30.28,30.04,0,0,0,0.00
2013-11-14,72.9,62.6,53.5,60.6,52.9,47.0,83,71,54,30.27,30.14,0,0,0,0.00
2013-11-15,67.3,62.2,61.6,63.6,56.2,55.0,88,81,78,30.14,30.05,0,0,0,0.00
2013-11-16,72.7,69.8,67.1,69.9,66.9,63.5,91,91,88,30.10,29.99,0,0,0,0.00
2013-11-17,81.4,74.3,68.6,73.4,69.4,66.0,93,85,72,30.05,29.94,0,0,0,0.00
2013-11-18,79.2,74.1,70.0,71.4,69.1,67.0,91,84,76,29.99,29.87,0,0,0,0.00
2013-11-19,75.4,71.2,66.1,68.0,64.4,60.4,90,80,66,29.95,29.84,0,0,0,0.00
2013-11-20,77.9,71.1,65.5,70.7,65.9,60.6,89,84,75,30.07,29.93,0,0,0,0.00
2013-11-21,76.9,72.7,70.4,70.5,68.6,67.1,90,87,80,30.15,30.05,0,0,0,0.00
2013-11-22,72.5,70.3,69.8,69.1,67.4,65.1,92,91,83,30.14,30.07,0,0,0,0.00
2013-11-23,81.0,72.3,65.3,72.0,65.6,61.8,91,80,67,30.07,29.95,0,0,0,0.00
2013-11-24,69.8,65.7,61.9,64.4,58.8,53.2,87,78,71,30.20,29.98,0,0,0,0.00
2013-11-25,73.4,67.6,63.5,60.7,57.4,53.3,78,70,62,30.21,30.03,0,0,0,0.00
2013-11-26,79.6,73.5,67.3,72.0,67.6,60.7,90,82,75,30.04,29.69,0,0,0,0.00
2013-11-27,75.2,64.2,47.0,70.3,57.2,38.4,88,78,68,30.17,29.65,0,0,0,0.00
2013-11-28,62.8,51.6,41.0,52.4,43.3,33.3,79,73,66,30.31,30.16,0,0,0,0.00
2013-11-29,70.2,60.0,52.6,61.3,53.0,47.4,88,78,68,30.32,30.23,0,0,0,0.00
2013-11-30,73.4,64.7,57.6,63.6,58.8,51.3,90,81,67,30.27,30.14,0,0,0,0.00
2013-12-1,73.1,66.7,62.3,67.0,62.0,59.0,90,85,76,30.16,29.93,0,0,0,0.00
2013-12-2,70.6,65.7,62.5,62.9,59.2,54.4,90,80,65,29.93,29.77,0,0,0,0.00
2013-12-3,76.1,66.4,58.5,65.2,58.8,54.1,87,77,65,29.95,29.84,0,0,0,0.00
2013-12-4,77.9,69.7,62.8,70.2,63.4,58.6,90,81,69,30.05,29.92,0,0,0,0.00
2013-12-5,82.4,71.9,64.6,71.2,65.2,60.7,91,80,66,30.13,30.03,0,0,0,0.00
2013-12-6,84.1,74.0,67.0,73.2,67.3,63.3,91,80,66,30.13,30.04,0,0,0,0.00
2013-12-7,83.3,73.4,67.0,71.1,65.4,62.8,89,77,59,30.20,30.09,0,0,0,0.00
2013-12-8,82.1,75.6,66.2,71.4,66.0,62.2,91,73,61,30.19,30.06,0,0,0,0.00
2013-12-9,73.8,72.1,71.3,65.3,64.2,63.6,78,76,74,30.09,30.08,0,0,0,0.00
2013-12-10,83.5,73.4,65.2,70.6,65.0,60.6,90,76,61,30.15,30.01,0,0,0,0.00
2013-12-11,80.5,69.9,60.8,68.9,61.2,52.9,80,74,66,30.21,30.10,0,0,0,0.00
2013-12-12,74.0,63.7,55.6,60.5,50.9,37.4,84,65,41,30.28,30.16,0,0,0,0.00
2013-12-13,72.9,61.5,52.2,59.1,50.8,41.3,81,68,58,30.23,30.08,0,0,0,0.00
2013-12-14,79.7,70.8,62.5,71.1,63.9,55.3,88,79,71,30.08,29.88,0,0,0,0.00
2013-12-15,72.7,68.4,61.2,68.6,62.2,54.0,88,81,74,30.08,29.82,0,0,0,0.00
2013-12-16,68.4,57.2,49.5,55.6,48.0,43.3,81,72,60,30.19,30.07,0,0,0,0.00
2013-12-17,71.6,57.4,47.7,57.6,48.2,41.3,80,72,60,30.21,30.10,0,0,0,0.00
2013-12-18,72.0,57.6,48.8,53.7,46.3,42.0,81,67,50,30.24,30.15,0,0,0,0.00
2013-12-19,75.2,59.7,47.9,60.9,50.2,41.1,86,72,57,30.24,30.13,0,0,0,0.00
2013-12-20,81.2,66.9,55.3,66.4,57.9,50.0,90,74,59,30.17,30.06,0,0,0,0.00
2013-12-21,83.2,73.4,65.9,71.6,66.3,60.7,91,79,66,30.10,29.98,0,0,0,0.00
2013-12-22,83.2,74.5,68.8,73.8,68.0,65.1,91,81,69,30.10,30.03,0,0,0,0.00
2013-12-23,85.5,75.5,70.6,75.3,68.6,66.2,90,80,63,30.13,30.02,0,0,0,0.00
2013-12-24,73.4,65.5,53.1,69.3,54.9,41.1,88,70,46,30.23,30.04,0,0,0,0.00
2013-12-25,73.6,59.6,49.3,59.2,48.7,38.6,79,68,55,30.21,30.11,0,0,0,0.00
2013-12-26,74.0,64.1,58.1,64.7,57.5,53.6,87,79,69,30.18,30.05,0,0,0,0.00
2013-12-27,72.5,64.5,60.3,64.0,59.7,55.0,87,84,73,30.22,30.13,0,0,0,0.00
2013-12-28,74.0,69.8,65.2,69.4,65.8,60.8,92,87,82,30.18,29.97,0,0,0,0.00
2013-12-29,76.9,72.0,66.8,71.6,68.2,62.9,92,88,73,29.98,29.83,0,0,0,0.00
2013-12-30,67.3,63.5,60.3,62.9,57.9,52.3,90,82,70,30.16,29.94,0,0,0,0.00
2013-12-31,69.1,62.4,58.3,56.0,52.9,51.3,82,72,57,30.26,30.12,0,0,0,0.00
2014-1-1,63.5,61.5,58.5,60.5,57.4,53.1,91,86,75,30.21,30.02,0,0,0,0.00
2014-1-2,77.8,68.0,62.6,71.3,64.8,56.7,94,89,79,30.02,29.77,0,0,0,0.00